Time;durP1;ratioP1;P1;durP2;ratioP2;P2;SDS_P1;SDS_P2;PMS_P1;PMS_P2;Temp;Humidity;BMP_temperature;BMP_pressure;BME280_temperature;BME280_humidity;BME280_pressure;Samples;Min_cycle;Max_cycle;Signal;HPM_P1;HPM_P2
2022/05/14 00:01:28;;;;;;;0.50;0.50;;;;;;;7.36;64.23;98018.16;5086185;28;20058;-79
2022/05/14 00:03:55;;;;;;;0.50;0.50;;;;;;;7.38;64.65;98045.59;5112258;28;20139;-79
2022/05/14 00:06:25;;;;;;;0.50;0.50;;;;;;;7.27;65.00;98033.09;5111234;28;20052;-79
2022/05/14 00:08:53;;;;;;;0.60;0.60;;;;;;;7.42;64.87;98048.59;5113291;28;20044;-79
2022/05/14 00:14:07;;;;;;;0.60;0.60;;;;;;;7.27;65.19;98048.38;5101393;28;20529;-80
2022/05/14 00:16:35;;;;;;;0.50;0.50;;;;;;;7.24;65.47;98047.00;5079068;28;20433;-80
2022/05/14 00:19:04;;;;;;;0.60;0.60;;;;;;;7.18;65.27;98037.25;5095189;28;20058;-80
2022/05/14 00:21:32;;;;;;;0.50;0.50;;;;;;;7.24;65.18;98032.75;5095268;28;20044;-80
2022/05/14 00:23:59;;;;;;;0.50;0.50;;;;;;;7.20;65.37;98029.75;5113410;28;20563;-80
2022/05/14 00:26:29;;;;;;;0.50;0.50;;;;;;;7.33;65.45;98048.19;5095787;28;20141;-80
2022/05/14 00:28:58;;;;;;;0.50;0.50;;;;;;;7.25;65.77;98058.56;5104441;28;20054;-80
2022/05/14 00:31:25;;;;;;;0.50;0.50;;;;;;;7.13;65.77;98026.44;5100133;28;20052;-80
2022/05/14 00:33:53;;;;;;;0.55;0.55;;;;;;;7.18;65.94;98050.66;5079097;28;20069;-81
2022/05/14 00:36:20;;;;;;;0.50;0.50;;;;;;;7.23;65.75;98045.38;5100527;27;20047;-82
2022/05/14 00:38:48;;;;;;;0.50;0.50;;;;;;;7.23;65.75;98040.00;5108834;27;20059;-80
2022/05/14 00:41:16;;;;;;;0.50;0.50;;;;;;;7.20;65.76;98045.06;5081784;27;20055;-82
2022/05/14 00:43:50;;;;;;;0.55;0.55;;;;;;;7.19;65.87;98049.63;5133721;27;20154;-81
2022/05/14 00:46:21;;;;;;;0.60;0.60;;;;;;;7.12;66.01;98044.41;5115397;27;20095;-81
2022/05/14 00:48:51;;;;;;;0.50;0.50;;;;;;;7.08;66.22;98037.09;5115583;27;20047;-81
2022/05/14 00:51:26;;;;;;;0.52;0.52;;;;;;;7.10;66.15;98034.97;5115614;27;20047;-81
2022/05/14 00:54:01;;;;;;;0.50;0.50;;;;;;;7.12;66.04;98032.88;5133567;27;20139;-81
2022/05/14 00:56:34;;;;;;;0.60;0.60;;;;;;;7.04;66.19;98022.53;5098139;27;20509;-81
2022/05/14 00:59:08;;;;;;;0.50;0.50;;;;;;;7.04;66.66;98025.22;5115237;27;20220;-81
2022/05/14 01:01:37;;;;;;;0.60;0.60;;;;;;;6.88;66.74;98011.56;5081329;27;20279;-81
2022/05/14 01:04:06;;;;;;;0.50;0.50;;;;;;;6.87;66.64;98004.59;5080885;27;20067;-81
2022/05/14 01:06:35;;;;;;;0.50;0.50;;;;;;;6.98;66.32;98015.47;5133499;27;20081;-81
2022/05/14 01:09:05;;;;;;;0.60;0.60;;;;;;;7.00;66.75;98032.16;5114860;27;20458;-80
2022/05/14 01:11:35;;;;;;;0.60;0.60;;;;;;;6.98;66.72;98023.53;5133323;27;20054;-80
2022/05/14 01:14:05;;;;;;;0.60;0.60;;;;;;;6.92;66.94;98023.44;5114988;27;20043;-81
2022/05/14 01:16:35;;;;;;;0.60;0.60;;;;;;;6.91;67.04;98027.19;5089635;28;20056;-80
2022/05/14 01:19:05;;;;;;;0.50;0.50;;;;;;;6.98;67.03;98026.22;5089460;28;20056;-81
2022/05/14 01:21:57;;;;;;;0.50;0.50;;;;;;;6.94;67.10;98026.69;5072917;28;20086;-81
2022/05/14 01:27:11;;;;;;;0.50;0.50;;;;;;;6.80;67.46;98020.03;5089756;28;20505;-82
2022/05/14 01:29:38;;;;;;;0.60;0.60;;;;;;;6.84;67.53;98026.53;5072959;28;20071;-81
2022/05/14 01:32:09;;;;;;;0.60;0.60;;;;;;;6.70;67.48;98009.94;5072675;28;20052;-81
2022/05/14 01:34:36;;;;;;;0.57;0.57;;;;;;;6.86;67.70;98023.59;5089533;28;20056;-81
2022/05/14 01:37:04;;;;;;;0.50;0.50;;;;;;;6.86;67.68;98026.28;5089433;28;20082;-80
2022/05/14 01:39:34;;;;;;;0.50;0.50;;;;;;;6.73;67.86;98022.06;5089543;28;20087;-80
2022/05/14 01:42:06;;;;;;;0.50;0.50;;;;;;;6.81;68.09;98023.53;5072172;28;20518;-80
2022/05/14 01:44:34;;;;;;;0.60;0.60;;;;;;;6.75;67.64;98019.94;5072776;28;20068;-81
2022/05/14 01:47:02;;;;;;;0.60;0.60;;;;;;;6.85;67.79;98028.16;5099865;27;20502;-81
2022/05/14 01:49:29;;;;;;;0.60;0.60;;;;;;;6.72;67.82;98013.22;5114757;27;20047;-81
2022/05/14 01:51:56;;;;;;;0.50;0.50;;;;;;;6.80;67.96;98028.06;5096949;27;20506;-80
2022/05/14 01:54:24;;;;;;;0.60;0.60;;;;;;;6.85;67.71;98030.84;5132735;27;20122;-80
2022/05/14 01:56:51;;;;;;;0.60;0.60;;;;;;;6.77;67.87;98025.88;5114246;27;20047;-81
2022/05/14 01:59:19;;;;;;;0.50;0.50;;;;;;;6.87;68.15;98031.41;5114470;27;20084;-81
2022/05/14 02:01:46;;;;;;;0.60;0.60;;;;;;;6.84;67.89;98025.75;5114216;27;20062;-81
2022/05/14 02:04:15;;;;;;;0.55;0.55;;;;;;;6.91;67.90;98037.94;5097005;27;20042;-81
2022/05/14 02:06:44;;;;;;;0.60;0.60;;;;;;;6.99;67.74;98030.50;5113836;27;20059;-80
2022/05/14 02:09:13;;;;;;;0.50;0.50;;;;;;;6.88;67.86;98016.94;5113859;27;20532;-81
2022/05/14 02:11:46;;;;;;;0.60;0.60;;;;;;;7.02;67.76;98028.16;5080805;28;20144;-80
2022/05/14 02:14:23;;;;;;;0.60;0.60;;;;;;;7.12;67.22;98033.69;5098840;27;20043;-81
2022/05/14 02:16:51;;;;;;;0.50;0.50;;;;;;;7.00;67.14;98008.81;5132044;27;20047;-80
2022/05/14 02:19:19;;;;;;;0.50;0.50;;;;;;;7.12;67.15;98022.13;5114244;28;20067;-82
2022/05/14 02:21:47;;;;;;;0.50;0.50;;;;;;;7.13;66.94;98024.56;5114012;28;20054;-81
2022/05/14 02:24:14;;;;;;;0.50;0.50;;;;;;;7.19;66.89;98025.47;5114583;28;20054;-81
2022/05/14 02:26:42;;;;;;;0.50;0.50;;;;;;;7.24;66.85;98038.13;5097199;28;20139;-81
2022/05/14 02:29:10;;;;;;;0.60;0.60;;;;;;;7.32;66.79;98040.41;5107796;28;20047;-81
2022/05/14 02:31:37;;;;;;;0.57;0.57;;;;;;;7.35;66.79;98042.59;5128353;28;20455;-80
2022/05/14 02:34:04;;;;;;;0.60;0.60;;;;;;;7.30;66.43;98040.66;5120295;28;20062;-81
2022/05/14 02:36:32;;;;;;;0.60;0.60;;;;;;;7.28;66.63;98023.16;5110436;28;20426;-80
2022/05/14 02:38:59;;;;;;;0.60;0.60;;;;;;;7.42;66.80;98047.78;5091002;28;20523;-80
2022/05/14 02:41:27;;;;;;;0.60;0.60;;;;;;;7.28;66.70;98032.03;5103117;28;20151;-80
2022/05/14 02:43:57;;;;;;;0.57;0.57;;;;;;;7.34;66.62;98032.91;5082038;28;20377;-80
2022/05/14 02:46:24;;;;;;;0.50;0.50;;;;;;;7.39;66.69;98032.97;5110454;28;20075;-81
2022/05/14 02:48:51;;;;;;;0.60;0.60;;;;;;;7.47;66.27;98043.31;5057854;28;20082;-81
2022/05/14 02:51:19;;;;;;;0.60;0.60;;;;;;;7.61;66.15;98051.81;5091779;28;20051;-81
2022/05/14 02:53:47;;;;;;;0.50;0.50;;;;;;;7.51;66.21;98036.34;5111059;28;20044;-81
2022/05/14 02:56:15;;;;;;;0.50;0.50;;;;;;;7.64;65.85;98061.22;5092780;28;20130;-81
2022/05/14 03:01:28;;;;;;;0.50;0.50;;;;;;;7.62;65.38;98039.19;5080701;28;20043;-81
2022/05/14 03:03:56;;;;;;;0.52;0.52;;;;;;;7.77;65.14;98066.22;5074479;28;20051;-81
2022/05/14 03:06:23;;;;;;;0.60;0.60;;;;;;;7.76;65.16;98054.69;5110330;28;20044;-81
2022/05/14 03:08:51;;;;;;;0.50;0.50;;;;;;;7.79;65.42;98056.84;5092139;28;20066;-81
2022/05/14 03:11:18;;;;;;;0.60;0.60;;;;;;;7.74;65.50;98045.25;5092315;28;20055;-81
2022/05/14 03:13:46;;;;;;;0.50;0.50;;;;;;;7.71;65.45;98045.75;5108941;28;20105;-81
2022/05/14 03:16:13;;;;;;;0.60;0.60;;;;;;;7.70;65.77;98050.31;5090575;28;20055;-81
2022/05/14 03:18:41;;;;;;;0.60;0.60;;;;;;;7.83;65.63;98051.81;5094281;28;20035;-81
2022/05/14 03:21:08;;;;;;;0.60;0.60;;;;;;;7.68;65.33;98024.78;5114183;28;20100;-81
2022/05/14 03:23:35;;;;;;;0.52;0.52;;;;;;;7.79;65.54;98043.44;5096748;28;20039;-81
2022/05/14 03:26:03;;;;;;;0.50;0.50;;;;;;;7.97;65.17;98060.31;5079776;28;20046;-81
2022/05/14 03:28:30;;;;;;;0.60;0.60;;;;;;;7.88;65.06;98056.44;5079270;28;20409;-81
2022/05/14 03:30:57;;;;;;;0.60;0.60;;;;;;;8.01;65.19;98066.81;5114005;28;20105;-80
2022/05/14 03:33:25;;;;;;;0.60;0.60;;;;;;;8.07;64.89;98071.16;5095816;28;20051;-82
2022/05/14 03:35:52;;;;;;;0.60;0.60;;;;;;;8.01;64.76;98053.38;5095894;28;20124;-81
2022/05/14 03:38:19;;;;;;;0.60;0.60;;;;;;;7.97;64.71;98038.81;5095959;28;20050;-81
2022/05/14 03:40:47;;;;;;;0.60;0.60;;;;;;;8.19;64.51;98074.53;5114235;28;20505;-81
2022/05/14 03:43:15;;;;;;;0.60;0.60;;;;;;;8.13;64.33;98042.50;5095924;28;20043;-81
2022/05/14 03:45:42;;;;;;;0.60;0.60;;;;;;;8.14;64.19;98054.88;5082050;28;20043;-79
2022/05/14 03:48:10;;;;;;;0.60;0.60;;;;;;;8.27;64.40;98053.66;5099588;28;20048;-81
2022/05/14 03:50:37;;;;;;;0.50;0.50;;;;;;;8.34;63.89;98071.22;5099452;28;20536;-83
2022/05/14 03:53:04;;;;;;;0.57;0.57;;;;;;;8.40;64.21;98061.34;5081462;27;20073;-81
2022/05/14 03:55:32;;;;;;;0.60;0.60;;;;;;;8.51;63.90;98070.31;5117500;28;20047;-81
2022/05/14 03:57:59;;;;;;;0.60;0.60;;;;;;;8.58;63.75;98070.94;5122071;27;20051;-82
2022/05/14 04:00:26;;;;;;;0.60;0.60;;;;;;;8.62;63.46;98072.88;5096185;28;20089;-81
2022/05/14 04:02:54;;;;;;;0.60;0.60;;;;;;;8.63;63.50;98068.28;5078560;28;20039;-84
2022/05/14 04:05:21;;;;;;;0.50;0.50;;;;;;;8.70;63.46;98068.91;5079278;28;20044;-82
2022/05/14 04:08:13;;;;;;;0.50;0.50;;;;;;;8.84;63.04;98056.66;5079269;28;20240;-84
2022/05/14 04:10:44;;;;;;;0.60;0.60;;;;;;;8.89;62.68;98061.28;5114116;28;20054;-82
2022/05/14 04:13:12;;;;;;;0.60;0.60;;;;;;;8.99;62.52;98050.59;5078963;28;20380;-82
2022/05/14 04:15:41;;;;;;;0.60;0.60;;;;;;;9.07;61.87;98046.63;5095888;28;20055;-82
2022/05/14 04:18:10;;;;;;;0.60;0.60;;;;;;;9.17;61.60;98044.00;5113740;28;20443;-81
2022/05/14 04:20:38;;;;;;;0.60;0.60;;;;;;;9.29;61.18;98047.31;5079148;28;20047;-81
2022/05/14 04:23:05;;;;;;;0.50;0.50;;;;;;;9.41;61.14;98047.09;5114008;28;20067;-82
2022/05/14 04:25:32;;;;;;;0.60;0.60;;;;;;;9.55;60.57;98052.84;5113777;28;20417;-81
2022/05/14 04:28:00;;;;;;;0.50;0.50;;;;;;;9.60;60.60;98050.19;5095605;28;20044;-81
2022/05/14 04:30:27;;;;;;;0.50;0.50;;;;;;;9.71;60.28;98068.00;5113282;28;20057;-81
2022/05/14 04:32:55;;;;;;;0.50;0.50;;;;;;;9.72;59.67;98037.31;5113213;28;20054;-81
2022/05/14 04:35:22;;;;;;;0.50;0.50;;;;;;;9.80;59.52;98048.66;5095438;28;20090;-82
2022/05/14 04:37:50;;;;;;;0.50;0.50;;;;;;;9.77;59.17;98021.19;5102981;28;20078;-82
2022/05/14 04:40:18;;;;;;;0.50;0.50;;;;;;;9.79;59.01;98028.19;5062630;28;20048;-83
2022/05/14 04:42:45;;;;;;;0.50;0.50;;;;;;;10.06;58.62;98052.28;5076159;28;20055;-82
2022/05/14 04:45:13;;;;;;;0.50;0.50;;;;;;;9.97;58.47;98038.47;5074868;28;20048;-83
2022/05/14 04:47:42;;;;;;;0.50;0.50;;;;;;;10.07;57.82;98032.31;5074651;28;20044;-83
2022/05/14 04:50:11;;;;;;;0.60;0.60;;;;;;;10.34;57.53;98051.84;5074262;28;20054;-83
2022/05/14 04:52:38;;;;;;;0.50;0.50;;;;;;;10.34;57.12;98048.34;5097891;28;20510;-81
2022/05/14 04:55:07;;;;;;;0.57;0.57;;;;;;;10.48;56.52;98040.53;5090232;28;20151;-82
2022/05/14 04:57:34;;;;;;;0.50;0.50;;;;;;;10.52;56.54;98053.22;5074297;28;20134;-82
2022/05/14 05:00:03;;;;;;;0.50;0.50;;;;;;;10.46;56.04;98057.00;5066286;28;20088;-81
2022/05/14 05:05:21;;;;;;;0.50;0.50;;;;;;;10.60;55.74;98051.91;5043838;28;20101;-82
2022/05/14 05:07:48;;;;;;;0.60;0.60;;;;;;;10.62;55.31;98042.47;5092386;28;20048;-81
2022/05/14 05:10:16;;;;;;;0.50;0.50;;;;;;;10.88;54.96;98052.47;5063021;28;20054;-82
2022/05/14 05:12:44;;;;;;;0.50;0.50;;;;;;;10.91;54.41;98033.03;5085128;28;20514;-82
2022/05/14 05:15:11;;;;;;;0.50;0.50;;;;;;;11.04;53.95;98033.31;5092020;28;20052;-82
2022/05/14 05:17:39;;;;;;;0.60;0.60;;;;;;;11.18;54.09;98052.44;5091803;28;20506;-81
2022/05/14 05:20:09;;;;;;;0.50;0.50;;;;;;;11.19;53.66;98050.56;5093672;28;20074;-82
2022/05/14 05:22:37;;;;;;;0.50;0.50;;;;;;;11.17;53.65;98041.94;5101063;28;20079;-82
2022/05/14 05:25:05;;;;;;;0.60;0.60;;;;;;;11.18;53.61;98020.03;5092083;28;20059;-81
2022/05/14 05:27:32;;;;;;;0.50;0.50;;;;;;;11.21;53.05;98000.59;5073813;28;20044;-81
2022/05/14 05:29:59;;;;;;;0.50;0.50;;;;;;;11.19;52.70;98027.09;5091657;28;20508;-81
2022/05/14 05:32:28;;;;;;;0.50;0.50;;;;;;;11.15;53.13;98017.09;5095937;28;20079;-81
2022/05/14 05:34:55;;;;;;;0.50;0.50;;;;;;;11.32;52.81;98030.28;5057125;28;20060;-82
2022/05/14 05:37:22;;;;;;;0.50;0.50;;;;;;;11.40;52.46;98029.75;5098572;28;20092;-83
2022/05/14 05:39:49;;;;;;;0.50;0.50;;;;;;;11.49;51.72;98030.78;5099373;28;20058;-82
2022/05/14 05:42:17;;;;;;;0.50;0.50;;;;;;;11.60;51.30;98032.41;5096537;28;20078;-81
2022/05/14 05:44:44;;;;;;;0.50;0.50;;;;;;;11.68;51.22;98039.94;5098399;28;20151;-82
2022/05/14 05:47:11;;;;;;;0.50;0.50;;;;;;;11.62;50.79;98029.41;5093153;28;20097;-81
2022/05/14 05:49:39;;;;;;;0.60;0.60;;;;;;;11.56;50.87;98036.72;5096709;28;20484;-81
2022/05/14 05:52:06;;;;;;;0.60;0.60;;;;;;;11.70;50.72;98045.06;5073586;28;20535;-81
2022/05/14 05:57:28;;;;;;;0.50;0.50;;;;;;;11.47;50.85;98027.56;5096037;28;20465;-82
2022/05/14 05:59:56;;;;;;;0.40;0.40;;;;;;;11.45;51.17;98044.03;5087595;28;20135;-82
2022/05/14 06:02:23;;;;;;;0.60;0.60;;;;;;;11.52;50.57;98024.84;5070086;28;20502;-83
2022/05/14 06:04:50;;;;;;;0.40;0.40;;;;;;;11.65;50.00;98018.88;5087779;28;20139;-83
2022/05/14 06:07:17;;;;;;;0.50;0.50;;;;;;;11.82;50.03;98028.53;5092692;28;20047;-85
2022/05/14 06:09:46;;;;;;;0.50;0.50;;;;;;;11.81;49.73;98029.63;5088216;28;20044;-83
2022/05/14 06:12:15;;;;;;;0.52;0.52;;;;;;;11.93;49.91;98035.56;5108208;28;20147;-85
2022/05/14 06:14:43;;;;;;;0.55;0.55;;;;;;;12.10;50.45;98037.91;5108040;28;20047;-83
2022/05/14 06:17:11;;;;;;;0.40;0.40;;;;;;;12.35;49.18;98020.72;5104416;28;20056;-82
2022/05/14 06:19:38;;;;;;;0.50;0.50;;;;;;;12.31;48.91;98025.09;5096823;28;20083;-82
2022/05/14 06:22:05;;;;;;;0.50;0.50;;;;;;;12.17;48.78;97997.03;5087320;28;20048;-82
2022/05/14 06:24:32;;;;;;;0.50;0.50;;;;;;;12.33;48.77;98022.91;5069807;28;20054;-82
2022/05/14 06:27:00;;;;;;;0.50;0.50;;;;;;;12.39;47.85;98004.75;5087410;28;20048;-81
2022/05/14 06:29:31;;;;;;;0.50;0.50;;;;;;;12.60;47.52;98024.38;5098491;28;20159;-82
2022/05/14 06:31:58;;;;;;;0.50;0.50;;;;;;;12.66;46.47;98002.41;5068710;28;20051;-81
2022/05/14 06:34:26;;;;;;;0.55;0.55;;;;;;;12.78;46.18;98002.03;5087358;28;20468;-82
2022/05/14 06:36:53;;;;;;;0.50;0.50;;;;;;;13.04;45.58;97996.38;5086997;28;20059;-81
2022/05/14 06:39:21;;;;;;;0.50;0.50;;;;;;;13.35;45.02;98005.88;5075167;28;20075;-81
2022/05/14 06:41:48;;;;;;;0.60;0.60;;;;;;;13.43;44.68;97991.69;4750261;28;10000902;-80
2022/05/14 06:44:16;;;;;;;0.60;0.60;;;;;;;13.28;45.02;98008.09;5088966;28;21029;-80
2022/05/14 06:46:43;;;;;;;0.60;0.60;;;;;;;13.46;44.75;97987.59;5098201;28;20457;-81
2022/05/14 06:49:12;;;;;;;0.52;0.52;;;;;;;13.71;43.59;97982.97;5090064;28;20044;-82
2022/05/14 06:51:39;;;;;;;0.50;0.50;;;;;;;13.84;43.36;98002.06;5094591;28;20148;-80
2022/05/14 06:54:09;;;;;;;0.52;0.52;;;;;;;14.05;43.33;98002.63;5091366;28;20052;-81
2022/05/14 06:56:39;;;;;;;0.50;0.50;;;;;;;13.71;43.34;98001.97;5105823;28;20586;-81
2022/05/14 06:59:09;;;;;;;0.55;0.55;;;;;;;13.55;43.85;98007.56;5106210;28;20139;-83
2022/05/14 07:01:38;;;;;;;0.60;0.60;;;;;;;13.95;44.25;97996.50;5100674;28;20067;-81
2022/05/14 07:07:05;;;;;;;0.50;0.50;;;;;;;14.45;42.23;97988.75;5008783;28;20076;-81
2022/05/14 07:09:33;;;;;;;0.50;0.50;;;;;;;14.00;42.82;97993.72;5008402;28;20050;-81
2022/05/14 07:12:03;;;;;;;0.60;0.60;;;;;;;14.07;42.80;97988.75;5010328;28;20492;-81
2022/05/14 07:14:33;;;;;;;0.60;0.60;;;;;;;14.32;42.09;97979.44;5030694;28;20080;-81
2022/05/14 07:17:00;;;;;;;0.50;0.50;;;;;;;14.48;41.35;97978.13;5025138;28;20514;-80
2022/05/14 07:19:27;;;;;;;0.50;0.50;;;;;;;14.57;40.95;97963.91;5025949;28;20049;-80
2022/05/14 07:21:55;;;;;;;0.60;0.60;;;;;;;14.74;40.49;97975.03;5019040;28;20058;-81
2022/05/14 07:24:25;;;;;;;0.50;0.50;;;;;;;14.89;40.95;97987.56;4998407;28;20065;-81
2022/05/14 07:26:56;;;;;;;0.40;0.40;;;;;;;14.58;41.14;97971.75;5027346;28;20049;-81
2022/05/14 07:29:25;;;;;;;0.60;0.60;;;;;;;14.79;40.88;97976.88;5027027;28;20535;-81
2022/05/14 07:31:53;;;;;;;0.43;0.43;;;;;;;14.55;41.17;97988.63;5025866;28;20432;-81
2022/05/14 07:34:21;;;;;;;0.50;0.50;;;;;;;14.22;42.06;97960.59;5026301;28;20080;-81
2022/05/14 07:37:06;;;;;;;0.50;0.50;;;;;;;14.62;40.46;97988.28;5011104;28;20111;-81
2022/05/14 07:39:38;;;;;;;0.40;0.40;;;;;;;14.72;39.61;97983.47;5026370;28;20542;-82
2022/05/14 07:42:09;;;;;;;0.40;0.40;;;;;;;14.41;40.02;97987.75;5008569;28;20049;-81
2022/05/14 07:44:37;;;;;;;0.50;0.50;;;;;;;14.25;39.54;97973.56;5101077;28;20170;-82
2022/05/14 07:47:06;;;;;;;0.60;0.60;;;;;;;14.22;40.49;97983.09;5099063;28;20050;-80
2022/05/14 07:49:34;;;;;;;0.50;0.50;;;;;;;14.44;40.60;97990.66;5072424;28;20082;-80
2022/05/14 07:52:02;;;;;;;0.45;0.45;;;;;;;14.25;40.86;97982.53;5072215;28;20125;-81
2022/05/14 07:54:29;;;;;;;0.55;0.55;;;;;;;14.12;40.95;97987.88;5089669;28;20048;-82
2022/05/14 07:56:56;;;;;;;0.65;0.65;;;;;;;14.55;40.06;97977.78;5094299;28;20529;-83
2022/05/14 07:59:23;;;;;;;0.70;0.70;;;;;;;14.62;39.73;97967.34;5071654;28;20048;-80
2022/05/14 08:01:50;;;;;;;0.50;0.50;;;;;;;14.58;39.94;97982.59;5102787;28;20071;-82
2022/05/14 08:04:17;;;;;;;0.70;0.70;;;;;;;14.68;39.30;97978.94;5090651;28;20056;-82
2022/05/14 08:06:44;;;;;;;0.80;0.80;;;;;;;14.83;39.13;97986.81;5092444;28;20062;-81
2022/05/14 08:09:11;;;;;;;0.40;0.40;;;;;;;14.90;39.24;97975.59;5104280;28;20075;-81
2022/05/14 08:11:39;;;;;;;0.80;0.80;;;;;;;15.30;38.47;97976.78;5094564;28;20051;-82
2022/05/14 08:14:06;;;;;;;0.45;0.45;;;;;;;15.46;38.45;97976.50;5083444;28;20039;-81
2022/05/14 08:16:33;;;;;;;0.40;0.40;;;;;;;15.01;38.61;97966.16;5098681;28;20048;-81
2022/05/14 08:19:01;;;;;;;0.60;0.60;;;;;;;15.00;38.96;97980.84;5080028;28;20067;-82
2022/05/14 08:24:32;;;;;;;0.50;0.50;;;;;;;14.91;39.09;97964.44;5079680;28;20395;-81
2022/05/14 08:27:03;;;;;;;0.70;0.70;;;;;;;15.38;37.72;97969.84;5096705;28;20043;-81
2022/05/14 08:29:31;;;;;;;0.50;0.50;;;;;;;15.68;36.51;97983.94;5074965;28;20044;-81
2022/05/14 08:32:00;;;;;;;0.90;0.90;;;;;;;15.51;36.48;97965.50;5089035;28;20070;-82
2022/05/14 08:34:27;;;;;;;0.75;0.75;;;;;;;16.25;35.36;97981.66;5094586;28;20046;-81
2022/05/14 08:36:55;;;;;;;0.40;0.40;;;;;;;15.54;36.01;97968.41;5095044;28;20129;-81
2022/05/14 08:39:22;;;;;;;0.40;0.40;;;;;;;14.68;37.51;97984.34;5100861;28;20052;-81
2022/05/14 08:41:51;;;;;;;0.40;0.40;;;;;;;14.26;38.89;97967.88;5099985;28;20471;-82
2022/05/14 08:44:25;;;;;;;0.40;0.40;;;;;;;14.31;39.22;97975.94;5092240;28;20066;-81
2022/05/14 08:46:55;;;;;;;0.50;0.50;;;;;;;14.61;38.91;97970.34;5092168;28;20047;-81
2022/05/14 08:49:33;;;;;;;0.50;0.50;;;;;;;14.71;38.03;97971.00;5074872;28;20058;-81
2022/05/14 08:52:05;;;;;;;0.60;0.60;;;;;;;14.76;38.25;97975.53;5072767;28;20135;-81
2022/05/14 08:54:33;;;;;;;0.40;0.40;;;;;;;14.52;38.56;97976.44;5055217;28;20082;-81
2022/05/14 08:57:11;;;;;;;0.40;0.40;;;;;;;14.28;39.43;97972.97;5094971;28;20048;-80
2022/05/14 08:59:51;;;;;;;0.40;0.40;;;;;;;14.20;39.47;97971.72;5081172;28;20048;-81
2022/05/14 09:02:40;;;;;;;0.40;0.40;;;;;;;14.13;39.25;97990.31;5092601;28;20048;-80
2022/05/14 09:05:19;;;;;;;0.45;0.45;;;;;;;14.11;39.11;97987.06;5088223;28;20052;-80
2022/05/14 09:07:50;;;;;;;0.50;0.50;;;;;;;14.27;38.70;97972.19;5079365;28;20576;-80
2022/05/14 09:10:24;;;;;;;0.50;0.50;;;;;;;14.47;38.77;97965.66;5089201;28;20551;-80
2022/05/14 09:12:59;;;;;;;0.50;0.50;;;;;;;14.71;38.79;97967.47;5099941;28;20430;-81
2022/05/14 09:15:30;;;;;;;0.50;0.50;;;;;;;14.74;38.55;97964.97;5099132;28;20051;-80
2022/05/14 09:18:19;;;;;;;0.50;0.50;;;;;;;14.61;39.41;97964.91;5091855;28;20657;-80
2022/05/14 09:20:57;;;;;;;0.40;0.40;;;;;;;14.55;39.36;97972.34;5076912;28;20050;-81
2022/05/14 09:23:32;;;;;;;0.50;0.50;;;;;;;14.36;39.18;97947.91;5097829;28;20409;-81
2022/05/14 09:26:38;;;;;;;0.50;0.50;;;;;;;14.34;40.40;97998.97;5077315;28;20144;-81
2022/05/14 09:29:32;;;;;;;0.40;0.40;;;;;;;13.88;42.05;97973.25;5099471;28;20082;-81
2022/05/14 09:32:02;;;;;;;0.50;0.50;;;;;;;13.72;43.28;97979.16;5042934;28;20118;-79
2022/05/14 09:34:34;;;;;;;0.82;0.82;;;;;;;14.62;42.60;97994.50;5045428;28;20044;-81
2022/05/14 09:37:11;;;;;;;0.90;0.90;;;;;;;15.45;41.96;97970.25;5015107;28;20053;-81
2022/05/14 09:39:39;;;;;;;0.90;0.90;;;;;;;16.19;41.26;97991.88;5047201;28;20628;-81
2022/05/14 09:42:24;;;;;;;1.00;1.00;;;;;;;17.25;39.46;97967.81;5032008;28;20178;-80
2022/05/14 09:44:53;;;;;;;0.90;0.90;;;;;;;17.56;39.27;97975.19;5049191;28;20037;-81
2022/05/14 09:47:33;;;;;;;0.90;0.90;;;;;;;18.03;37.75;97952.84;5049037;28;20047;-81
2022/05/14 09:50:06;;;;;;;1.00;1.00;;;;;;;18.73;33.96;97953.66;5048873;28;20099;-81
2022/05/14 09:52:35;;;;;;;0.50;0.50;;;;;;;17.56;35.46;97956.06;5032772;28;20135;-81
2022/05/14 09:55:08;;;;;;;0.80;0.80;;;;;;;17.85;33.87;97961.03;5032248;28;20481;-81
2022/05/14 09:57:54;;;;;;;0.77;0.77;;;;;;;17.77;33.27;97972.66;5032020;28;20059;-81
2022/05/14 10:00:28;;;;;;;0.82;0.82;;;;;;;17.16;34.43;97968.91;5048589;28;20128;-81
2022/05/14 10:03:05;;;;;;;;;;;;;;;17.51;34.26;97961.69;5032848;28;20048;-81
2022/05/14 10:05:50;;;;;;;0.90;0.90;;;;;;;18.01;33.39;97950.44;5049758;28;20027;-81
2022/05/14 10:08:35;;;;;;;0.90;0.90;;;;;;;18.34;32.94;97937.13;5054160;28;20212;-81
2022/05/14 10:11:12;;;;;;;0.80;0.80;;;;;;;18.81;32.37;97939.22;5090832;28;20063;-82
2022/05/14 10:13:57;;;;;;;0.90;0.90;;;;;;;19.21;32.27;97931.53;5091250;28;20052;-82
2022/05/14 10:16:30;;;;;;;0.80;0.80;;;;;;;19.53;31.81;97926.59;5090500;28;20048;-81
2022/05/14 10:19:27;;;;;;;0.57;0.57;;;;;;;18.95;32.46;97941.78;5091072;28;20044;-81
2022/05/14 10:22:20;;;;;;;0.50;0.50;;;;;;;17.37;34.19;97917.34;5091397;28;20044;-81
2022/05/14 10:28:06;;;;;;;0.90;0.90;;;;;;;19.27;31.13;97919.31;5075379;28;20052;-80
2022/05/14 10:31:01;;;;;;;0.90;0.90;;;;;;;19.51;30.87;97911.63;5072775;28;20051;-80
2022/05/14 10:33:30;;;;;;;0.88;0.88;;;;;;;19.92;30.13;97917.22;5091200;28;20084;-80
2022/05/14 10:36:05;;;;;;;0.90;0.90;;;;;;;19.78;30.11;97926.81;5090625;28;20071;-80
2022/05/14 10:38:53;;;;;;;0.80;0.80;;;;;;;19.65;29.78;97923.16;5073203;28;20048;-81
2022/05/14 10:41:33;;;;;;;0.63;0.63;;;;;;;18.05;31.57;97923.31;5090622;28;20454;-81
2022/05/14 10:44:04;;;;;;;0.55;0.55;;;;;;;17.82;30.79;97912.50;5073014;28;20039;-81
2022/05/14 10:46:34;;;;;;;0.90;0.90;;;;;;;19.02;29.40;97926.47;5073367;28;20051;-81
2022/05/14 10:49:22;;;;;;;0.90;0.90;;;;;;;19.65;28.80;97910.28;5092189;28;20056;-82
2022/05/14 10:51:53;;;;;;;0.88;0.88;;;;;;;19.90;28.41;97924.97;5064798;28;20410;-81
2022/05/14 10:54:25;;;;;;;0.90;0.90;;;;;;;19.96;28.12;97920.09;5080881;28;20569;-80
2022/05/14 10:56:59;;;;;;;0.80;0.80;;;;;;;20.07;28.69;97936.94;5104461;28;20074;-82
2022/05/14 10:59:43;;;;;;;0.90;0.90;;;;;;;21.14;26.85;97890.66;5079472;28;20055;-81
2022/05/14 11:02:10;;;;;;;0.73;0.73;;;;;;;20.82;26.77;97920.53;5097591;28;20059;-82
2022/05/14 11:04:42;;;;;;;0.40;0.40;;;;;;;18.42;29.83;97919.16;5092973;28;20540;-81
2022/05/14 11:07:14;;;;;;;0.90;0.90;;;;;;;18.79;29.96;97895.03;5099374;28;20040;-81
2022/05/14 11:09:45;;;;;;;0.90;0.90;;;;;;;20.50;27.81;97891.94;5072965;28;20414;-80
2022/05/14 11:12:32;;;;;;;0.90;0.90;;;;;;;21.68;25.46;97887.72;5059487;28;20080;-81
2022/05/14 11:15:02;;;;;;;0.77;0.77;;;;;;;21.80;25.54;97897.88;5093476;28;20109;-81
2022/05/14 11:17:35;;;;;;;0.90;0.90;;;;;;;21.71;25.43;97900.75;5084475;28;20055;-80
2022/05/14 11:20:02;;;;;;;0.90;0.90;;;;;;;21.38;26.34;97900.84;5080928;28;20040;-82
2022/05/14 11:22:33;;;;;;;0.90;0.90;;;;;;;20.75;27.08;97899.13;5089933;28;20147;-81
2022/05/14 11:25:25;;;;;;;0.45;0.45;;;;;;;19.04;29.71;97905.06;5090542;28;20048;-81
2022/05/14 11:28:12;;;;;;;0.80;0.80;;;;;;;19.47;29.54;97895.88;5062666;28;20048;-81
2022/05/14 11:30:54;;;;;;;0.90;0.90;;;;;;;20.30;28.55;97899.84;5096331;28;20043;-81
2022/05/14 11:33:31;;;;;;;0.80;0.80;;;;;;;20.90;27.43;97889.47;5069197;28;20055;-81
2022/05/14 11:36:15;;;;;;;0.90;0.90;;;;;;;21.14;27.09;97896.94;5099836;28;20121;-81
2022/05/14 11:38:47;;;;;;;0.90;0.90;;;;;;;20.04;28.44;97891.03;5102876;28;20455;-80
2022/05/14 11:41:26;;;;;;;0.40;0.40;;;;;;;19.77;27.77;97908.78;5099135;28;20411;-82
2022/05/14 11:43:55;;;;;;;1.00;1.00;;;;;;;20.09;27.89;97897.13;5095643;28;20449;-81
2022/05/14 11:46:32;;;;;;;0.30;0.30;;;;;;;19.66;28.17;97913.81;5113296;28;20089;-81
2022/05/14 11:49:47;;;;;;;1.00;1.00;;;;;;;19.26;28.69;97904.00;5108579;28;20047;-81
2022/05/14 11:52:22;;;;;;;0.90;0.90;;;;;;;20.35;26.92;97879.66;5042817;28;20050;-81
2022/05/14 11:54:49;;;;;;;0.95;0.95;;;;;;;21.27;26.13;97888.72;5020862;28;20379;-81
2022/05/14 11:57:35;;;;;;;0.90;0.90;;;;;;;21.77;25.87;97906.81;5030412;28;20452;-81
2022/05/14 12:00:09;;;;;;;0.40;0.40;;;;;;;19.09;29.09;97882.22;5007341;28;20054;-81
2022/05/14 12:02:59;;;;;;;0.80;0.80;;;;;;;19.03;29.71;97880.78;5026779;28;20082;-80
2022/05/14 12:05:48;;;;;;;0.40;0.40;;;;;;;18.76;29.36;97901.94;4994437;28;20109;-81
2022/05/14 12:08:41;;;;;;;0.90;0.90;;;;;;;20.74;27.51;97870.13;5027045;28;20053;-82
2022/05/14 12:11:47;;;;;;;0.90;0.90;;;;;;;22.66;25.87;97886.63;5010690;28;20571;-81
2022/05/14 12:14:28;;;;;;;0.90;0.90;;;;;;;23.21;24.12;97887.72;5010689;28;20053;-81
2022/05/14 12:16:58;;;;;;;0.20;0.20;;;;;;;21.99;25.63;97884.34;5010770;28;20058;-82
2022/05/14 12:19:28;;;;;;;0.28;0.28;;;;;;;19.00;29.19;97890.44;5010809;28;20073;-81